Time;durP1;ratioP1;P1;durP2;ratioP2;P2;SDS_P1;SDS_P2;PMS_P1;PMS_P2;Temp;Humidity;BMP_temperature;BMP_pressure;BME280_temperature;BME280_humidity;BME280_pressure;Samples;Min_cycle;Max_cycle;Signal;HPM_P1;HPM_P2
2023/03/12 00:02:18;;;;;;;9.57;2.80;;;;;;;2.79;63.74;100966.59;5035731;28;20078;-89
2023/03/12 00:04:43;;;;;;;7.15;2.58;;;;;;;2.78;63.30;100960.38;5042721;28;20036;-90
2023/03/12 00:07:09;;;;;;;8.13;2.77;;;;;;;2.73;63.73;100964.56;5045066;28;20043;-89
2023/03/12 00:09:41;;;;;;;5.53;2.80;;;;;;;2.75;63.42;100955.34;5045165;28;20127;-89
2023/03/12 00:12:07;;;;;;;8.45;2.80;;;;;;;2.70;63.70;100960.38;5041419;28;20051;-89
2023/03/12 00:14:33;;;;;;;6.63;2.53;;;;;;;2.65;63.92;100951.97;5035407;28;20044;-89
2023/03/12 00:17:01;;;;;;;5.72;2.83;;;;;;;2.63;64.02;100960.16;5037882;28;20021;-90
2023/03/12 00:19:29;;;;;;;7.93;2.87;;;;;;;2.58;63.90;100951.78;5023014;28;20025;-89
2023/03/12 00:22:00;;;;;;;7.65;2.83;;;;;;;2.61;64.43;100948.78;5039791;28;20044;-89
2023/03/12 00:24:28;;;;;;;5.97;2.97;;;;;;;2.67;64.12;100941.91;5039460;28;20124;-89
2023/03/12 00:26:56;;;;;;;6.45;2.50;;;;;;;2.69;64.02;100931.03;5039341;28;20098;-89
2023/03/12 00:29:24;;;;;;;7.30;2.70;;;;;;;2.77;63.85;100921.19;5038995;28;20033;-89
2023/03/12 00:31:58;;;;;;;8.57;2.50;;;;;;;2.80;63.47;100914.69;5056483;28;20089;-89
2023/03/12 00:34:24;;;;;;;8.85;2.72;;;;;;;2.83;63.83;100921.56;5038857;28;20025;-89
2023/03/12 00:36:57;;;;;;;7.77;2.77;;;;;;;2.83;63.14;100916.19;5038510;28;20116;-89
2023/03/12 00:39:23;;;;;;;8.88;2.90;;;;;;;2.83;63.36;100916.19;5039430;28;20279;-89
2023/03/12 00:41:48;;;;;;;12.70;2.80;;;;;;;2.80;62.66;100917.34;5038522;28;20464;-89
2023/03/12 00:44:19;;;;;;;6.10;2.53;;;;;;;2.80;63.04;100912.00;5057081;28;20040;-89
2023/03/12 00:46:45;;;;;;;6.07;2.60;;;;;;;2.83;63.04;100921.56;5038573;28;20037;-89
2023/03/12 00:49:20;;;;;;;9.43;2.47;;;;;;;2.84;62.63;100908.00;5038209;28;20380;-89
2023/03/12 00:51:45;;;;;;;6.32;2.42;;;;;;;2.91;62.72;100911.69;5038563;28;20025;-89
2023/03/12 00:54:13;;;;;;;5.97;2.45;;;;;;;2.92;62.98;100908.03;5038540;28;20029;-89
2023/03/12 00:56:41;;;;;;;9.60;2.60;;;;;;;2.95;62.26;100907.69;5038798;28;20051;-89
2023/03/12 00:59:08;;;;;;;6.72;2.47;;;;;;;2.94;62.45;100902.50;5038236;28;20107;-90
2023/03/12 01:01:34;;;;;;;10.18;2.67;;;;;;;2.98;62.88;100907.38;5038727;28;20045;-90
2023/03/12 01:03:59;;;;;;;8.57;3.17;;;;;;;2.95;62.51;100893.44;5037937;28;20029;-90
2023/03/12 01:06:28;;;;;;;5.05;2.58;;;;;;;2.97;63.01;100894.97;5038342;28;20025;-90
2023/03/12 01:08:54;;;;;;;4.43;2.30;;;;;;;3.03;63.10;100893.47;5038176;28;20095;-89
2023/03/12 01:11:23;;;;;;;5.63;2.67;;;;;;;3.04;62.88;100886.25;5038160;28;20032;-90
2023/03/12 01:13:57;;;;;;;5.75;2.55;;;;;;;3.07;62.84;100880.56;5021704;28;20056;-90
2023/03/12 01:16:29;;;;;;;6.88;2.88;;;;;;;3.11;62.99;100879.22;5038023;28;20039;-89
2023/03/12 01:19:01;;;;;;;8.93;2.85;;;;;;;3.08;62.77;100879.56;5038938;28;20063;-89
2023/03/12 01:21:28;;;;;;;6.95;2.95;;;;;;;3.10;63.04;100882.91;5037951;28;20120;-88
2023/03/12 01:23:56;;;;;;;6.83;2.90;;;;;;;3.08;63.00;100877.72;5037798;28;20454;-90
2023/03/12 01:26:31;;;;;;;8.35;2.80;;;;;;;3.06;63.38;100873.53;5037991;28;20068;-90
2023/03/12 01:28:57;;;;;;;8.52;2.92;;;;;;;3.05;62.69;100879.91;5038476;28;20028;-90
2023/03/12 01:31:26;;;;;;;9.60;3.53;;;;;;;3.02;63.18;100886.41;5037894;28;20108;-90
2023/03/12 01:33:55;;;;;;;6.85;3.10;;;;;;;3.05;63.84;100886.09;5037759;28;20040;-90
2023/03/12 01:36:29;;;;;;;6.57;2.70;;;;;;;3.08;63.38;100876.88;5037975;28;20068;-90
2023/03/12 01:39:00;;;;;;;8.40;2.95;;;;;;;3.07;62.93;100872.50;5038418;28;20440;-89
2023/03/12 01:41:28;;;;;;;4.93;2.72;;;;;;;3.09;63.38;100870.53;5038086;28;20047;-90
2023/03/12 01:43:53;;;;;;;7.80;3.03;;;;;;;3.13;63.09;100866.47;5037314;28;20043;-90
2023/03/12 01:46:26;;;;;;;10.80;3.53;;;;;;;3.16;63.37;100868.84;5037459;28;20033;-90
2023/03/12 01:48:57;;;;;;;8.18;2.58;;;;;;;3.15;63.38;100865.31;5055687;28;20491;-90
2023/03/12 01:51:29;;;;;;;8.32;3.20;;;;;;;3.16;63.26;100850.91;5037875;28;20095;-90
2023/03/12 01:53:59;;;;;;;8.50;3.08;;;;;;;3.14;63.19;100849.41;5056125;28;20033;-90
2023/03/12 01:56:29;;;;;;;7.47;3.00;;;;;;;3.15;63.01;100851.09;5040993;28;20053;-90
2023/03/12 01:58:59;;;;;;;9.52;3.10;;;;;;;3.13;62.82;100850.41;5043621;28;20029;-89
2023/03/12 02:01:26;;;;;;;8.35;3.30;;;;;;;3.10;63.16;100846.22;5045732;28;20491;-90
2023/03/12 02:03:57;;;;;;;6.93;2.95;;;;;;;3.09;63.36;100836.50;5046684;28;20115;-89
2023/03/12 02:06:44;;;;;;;6.38;3.10;;;;;;;3.10;63.06;100838.19;5047106;28;20040;-89
2023/03/12 02:09:11;;;;;;;8.88;3.05;;;;;;;3.08;63.14;100842.84;5053994;28;20037;-89
2023/03/12 02:11:39;;;;;;;5.80;3.20;;;;;;;3.06;63.06;100833.34;5055586;28;20031;-90
2023/03/12 02:14:08;;;;;;;7.28;3.33;;;;;;;3.06;63.53;100836.84;5022489;28;20037;-90
2023/03/12 02:16:33;;;;;;;8.98;3.40;;;;;;;3.00;63.59;100826.78;5040235;28;20512;-90
2023/03/12 02:19:03;;;;;;;5.88;3.00;;;;;;;3.00;63.85;100826.78;5039167;28;20035;-90
2023/03/12 02:21:36;;;;;;;9.15;3.30;;;;;;;3.03;64.58;100817.53;5037194;28;20033;-89
2023/03/12 02:24:51;;;;;;;6.95;3.35;;;;;;;3.10;63.39;100808.69;5037111;28;20556;-90
2023/03/12 02:27:18;;;;;;;8.52;3.08;;;;;;;3.04;64.53;100821.91;5049528;28;20514;-90
2023/03/12 02:29:44;;;;;;;7.40;3.40;;;;;;;3.07;64.74;100810.84;5054047;28;20076;-89
2023/03/12 02:32:25;;;;;;;6.80;2.75;;;;;;;3.08;64.14;100810.69;5036578;28;20021;-89
2023/03/12 02:34:50;;;;;;;10.63;3.65;;;;;;;3.09;64.49;100822.28;5036668;28;20123;-89
2023/03/12 02:37:20;;;;;;;6.88;3.50;;;;;;;3.01;64.67;100816.88;5019849;28;20060;-90
2023/03/12 02:39:54;;;;;;;9.30;2.93;;;;;;;2.99;65.44;100817.06;5035543;28;20120;-90
2023/03/12 02:42:22;;;;;;;10.73;3.33;;;;;;;2.94;65.60;100814.88;5036539;28;20076;-91
2023/03/12 02:44:47;;;;;;;6.95;3.38;;;;;;;2.89;65.85;100814.53;5036463;28;20029;-89
2023/03/12 02:47:13;;;;;;;6.80;3.53;;;;;;;2.83;66.21;100822.41;5036412;28;20040;-89
2023/03/12 02:49:41;;;;;;;10.90;3.83;;;;;;;2.80;66.47;100815.53;5036959;28;20021;-91
2023/03/12 02:52:10;;;;;;;5.70;3.37;;;;;;;2.73;68.53;100819.88;5036258;28;20480;-90
2023/03/12 02:54:38;;;;;;;5.97;3.67;;;;;;;2.61;70.29;100819.34;5035818;28;20039;-90
2023/03/12 02:57:08;;;;;;;8.55;3.70;;;;;;;2.41;71.86;100810.75;5054339;28;20095;-90
2023/03/12 02:59:36;;;;;;;10.25;3.67;;;;;;;2.23;73.08;100819.75;5054442;28;20084;-91
2023/03/12 03:02:08;;;;;;;8.10;3.72;;;;;;;2.04;75.85;100807.44;5035724;28;20062;-90
2023/03/12 03:04:34;;;;;;;7.60;3.77;;;;;;;1.88;79.16;100804.69;5037187;28;20041;-90
2023/03/12 03:06:59;;;;;;;10.35;4.03;;;;;;;1.76;81.30;100801.44;5054205;28;20031;-90
2023/03/12 03:09:25;;;;;;;10.63;3.60;;;;;;;1.69;83.44;100797.72;5037057;28;20029;-90
2023/03/12 03:11:51;;;;;;;8.80;3.97;;;;;;;1.60;84.87;100799.53;5054177;28;20033;-90
2023/03/12 03:14:17;;;;;;;10.27;3.97;;;;;;;1.55;85.24;100801.81;5019572;28;20037;-90
2023/03/12 03:16:43;;;;;;;13.68;4.25;;;;;;;1.44;86.31;100810.13;5053577;28;20036;-90
2023/03/12 03:19:10;;;;;;;9.43;3.90;;;;;;;1.43;87.34;100816.44;5035679;28;20025;-90
2023/03/12 03:21:35;;;;;;;8.25;3.45;;;;;;;1.41;88.47;100811.25;5054123;28;20037;-90
2023/03/12 03:24:07;;;;;;;9.25;3.40;;;;;;;1.36;89.93;100813.56;5036294;28;20039;-90
2023/03/12 03:26:35;;;;;;;6.25;2.97;;;;;;;1.36;89.35;100803.72;5021378;28;20033;-90
2023/03/12 03:29:02;;;;;;;10.07;3.87;;;;;;;1.35;89.94;100803.88;5036059;28;20067;-90
2023/03/12 03:31:39;;;;;;;7.40;3.50;;;;;;;1.39;90.27;100803.41;5019893;28;20119;-90
2023/03/12 03:34:07;;;;;;;12.55;3.60;;;;;;;1.37;91.32;100796.50;5035942;28;20045;-90
2023/03/12 03:36:33;;;;;;;7.38;3.60;;;;;;;1.44;90.74;100797.56;5020212;28;20067;-89
2023/03/12 03:39:01;;;;;;;8.17;3.10;;;;;;;1.47;91.20;100791.09;5036146;28;20106;-89
2023/03/12 03:41:31;;;;;;;7.22;3.58;;;;;;;1.53;90.89;100782.41;5037140;28;20108;-90
2023/03/12 03:44:07;;;;;;;8.95;3.50;;;;;;;1.60;90.15;100780.78;5020339;28;20041;-89
2023/03/12 03:46:35;;;;;;;6.90;3.42;;;;;;;1.67;90.58;100770.28;5036190;28;20037;-90
2023/03/12 03:49:06;;;;;;;9.20;3.13;;;;;;;1.75;90.36;100762.31;5019464;28;20124;-89
2023/03/12 03:51:31;;;;;;;8.05;3.17;;;;;;;1.88;90.28;100767.22;5024489;28;20115;-90
2023/03/12 03:53:59;;;;;;;6.88;3.17;;;;;;;1.95;89.24;100754.03;5040942;28;20083;-90
2023/03/12 03:56:27;;;;;;;9.07;3.40;;;;;;;2.00;89.85;100741.03;5042745;28;20025;-89
2023/03/12 03:58:57;;;;;;;11.15;4.03;;;;;;;2.06;89.16;100740.38;5065114;28;20282;-90
2023/03/12 04:01:25;;;;;;;10.85;4.13;;;;;;;2.06;89.52;100748.41;5067018;28;20082;-90
2023/03/12 04:03:50;;;;;;;5.82;3.20;;;;;;;2.07;88.52;100750.09;5049791;28;20377;-89
2023/03/12 04:06:16;;;;;;;9.53;3.70;;;;;;;2.13;88.44;100753.94;5049255;28;20032;-90
2023/03/12 04:08:44;;;;;;;7.53;4.10;;;;;;;2.17;89.17;100750.78;5057203;28;20021;-90
2023/03/12 04:11:13;;;;;;;6.70;3.45;;;;;;;2.21;88.07;100741.41;5039797;28;20110;-90
2023/03/12 04:13:41;;;;;;;9.98;3.90;;;;;;;2.19;87.00;100735.38;5057273;28;20095;-89
2023/03/12 04:16:07;;;;;;;12.55;3.55;;;;;;;2.21;86.47;100722.66;5057449;28;20037;-89
2023/03/12 04:18:36;;;;;;;7.20;3.50;;;;;;;2.28;87.09;100715.66;5039286;28;20043;-89
2023/03/12 04:21:06;;;;;;;12.05;3.35;;;;;;;2.35;87.40;100728.38;5038895;28;20060;-90
2023/03/12 04:23:32;;;;;;;8.85;3.33;;;;;;;2.37;85.67;100723.72;5039325;28;20365;-90
2023/03/12 04:26:00;;;;;;;10.80;3.70;;;;;;;2.41;85.59;100715.19;5039196;28;20476;-90
2023/03/12 04:28:37;;;;;;;10.52;3.55;;;;;;;2.44;85.64;100696.09;5038938;28;20103;-90
2023/03/12 04:31:06;;;;;;;9.43;3.40;;;;;;;2.50;85.01;100694.59;5039195;28;20491;-90
2023/03/12 04:33:39;;;;;;;7.05;2.90;;;;;;;2.57;84.92;100706.34;5039220;28;20055;-90
2023/03/12 04:36:07;;;;;;;9.25;3.10;;;;;;;2.51;84.37;100688.25;5056604;28;20029;-90
2023/03/12 04:38:40;;;;;;;11.82;3.20;;;;;;;2.46;84.85;100685.22;5056530;28;20033;-90
2023/03/12 04:41:16;;;;;;;7.97;3.30;;;;;;;2.45;84.83;100683.53;5038610;28;20115;-90
2023/03/12 04:43:41;;;;;;;7.40;3.30;;;;;;;2.49;84.62;100674.19;5039191;28;20033;-90
2023/03/12 04:46:10;;;;;;;7.43;3.20;;;;;;;2.47;85.07;100686.91;5039057;28;20028;-90
2023/03/12 04:48:35;;;;;;;6.30;3.15;;;;;;;2.50;85.24;100696.47;5038419;28;20032;-90
2023/03/12 04:51:03;;;;;;;8.83;3.30;;;;;;;2.51;85.13;100696.28;5038227;28;20033;-89
2023/03/12 04:53:34;;;;;;;8.43;3.13;;;;;;;2.53;84.44;100693.44;5038137;28;20032;-90
2023/03/12 04:55:59;;;;;;;9.23;3.22;;;;;;;2.52;85.10;100686.41;5056134;28;20053;-90
2023/03/12 04:58:42;;;;;;;10.43;3.77;;;;;;;2.50;85.57;100675.88;5056350;28;20075;-89
2023/03/12 05:01:21;;;;;;;8.95;3.55;;;;;;;2.53;85.60;100677.38;5020978;28;20080;-90
2023/03/12 05:03:49;;;;;;;11.20;3.30;;;;;;;2.50;86.20;100675.03;5055954;28;20044;-90
2023/03/12 05:06:15;;;;;;;10.55;3.22;;;;;;;2.46;86.43;100663.81;5005806;28;20041;-90
2023/03/12 05:08:43;;;;;;;6.37;2.73;;;;;;;2.43;87.04;100659.59;5056487;28;20074;-89
2023/03/12 05:11:08;;;;;;;10.27;3.70;;;;;;;2.49;87.18;100657.28;5056243;28;20036;-90
2023/03/12 05:13:39;;;;;;;6.43;2.83;;;;;;;2.47;88.06;100644.06;5055816;28;20424;-90
2023/03/12 05:16:07;;;;;;;6.75;2.70;;;;;;;2.42;89.01;100646.38;5038510;28;20043;-90
2023/03/12 05:18:36;;;;;;;5.22;2.90;;;;;;;2.40;91.05;100643.88;5038030;28;20029;-90
2023/03/12 05:21:07;;;;;;;11.63;3.70;;;;;;;2.34;92.04;100646.41;5055646;28;20491;-89
2023/03/12 05:23:38;;;;;;;8.13;3.33;;;;;;;2.33;92.78;100642.03;5038289;28;20024;-90
2023/03/12 05:26:14;;;;;;;9.05;3.78;;;;;;;2.34;93.18;100647.22;5038300;28;20032;-91
2023/03/12 05:28:44;;;;;;;7.93;3.45;;;;;;;2.43;92.32;100646.22;5037976;28;20043;-88
2023/03/12 05:31:13;;;;;;;7.25;3.17;;;;;;;2.38;94.02;100640.53;5037993;28;20033;-89
2023/03/12 05:33:39;;;;;;;8.50;3.05;;;;;;;2.41;93.99;100656.28;5037773;28;20132;-90
2023/03/12 05:36:11;;;;;;;7.27;3.10;;;;;;;2.33;94.92;100629.47;5037712;28;20116;-89
2023/03/12 05:38:36;;;;;;;12.52;3.78;;;;;;;2.28;96.79;100629.16;5055260;28;20025;-89
2023/03/12 05:41:02;;;;;;;8.55;2.92;;;;;;;2.26;98.23;100631.19;5037353;28;20392;-90
2023/03/12 05:43:31;;;;;;;10.77;3.07;;;;;;;2.24;100.00;100628.66;5037948;28;20037;-89
2023/03/12 05:46:03;;;;;;;9.32;3.25;;;;;;;2.24;100.00;100619.78;5037756;28;20037;-89
2023/03/12 05:48:30;;;;;;;6.68;3.22;;;;;;;2.24;100.00;100619.78;5037175;28;20029;-90
2023/03/12 05:50:56;;;;;;;8.73;3.42;;;;;;;2.27;100.00;100631.00;5055484;28;20029;-89
2023/03/12 05:53:29;;;;;;;8.30;3.13;;;;;;;2.27;100.00;100617.63;5037748;28;20025;-90
2023/03/12 05:56:02;;;;;;;9.63;3.30;;;;;;;2.31;100.00;100630.66;5038008;28;20028;-90
2023/03/12 05:58:30;;;;;;;8.02;3.22;;;;;;;2.31;100.00;100628.81;5037786;28;20089;-89
2023/03/12 06:00:55;;;;;;;8.73;3.28;;;;;;;2.33;100.00;100624.13;5037373;28;20465;-90
2023/03/12 06:03:24;;;;;;;12.80;3.93;;;;;;;2.35;100.00;100626.63;5021087;28;20040;-89
2023/03/12 06:05:54;;;;;;;7.35;3.15;;;;;;;2.35;100.00;100624.81;5037183;28;20082;-89
2023/03/12 06:08:31;;;;;;;8.60;3.40;;;;;;;2.41;100.00;100628.66;5037328;28;20032;-90
2023/03/12 06:10:58;;;;;;;9.48;4.00;;;;;;;2.47;100.00;100633.34;5037714;28;20037;-90
2023/03/12 06:13:29;;;;;;;9.77;3.60;;;;;;;2.45;100.00;100635.34;5035831;28;20032;-89
2023/03/12 06:16:03;;;;;;;8.10;4.18;;;;;;;2.43;100.00;100632.00;5036843;28;20059;-86
2023/03/12 06:18:30;;;;;;;11.38;3.58;;;;;;;2.42;100.00;100638.34;5055215;28;20107;-90
2023/03/12 06:21:08;;;;;;;10.60;3.30;;;;;;;2.42;100.00;100646.38;5054183;28;20029;-90
2023/03/12 06:23:34;;;;;;;11.45;3.47;;;;;;;2.39;100.00;100644.03;5037242;28;20148;-91
2023/03/12 06:26:00;;;;;;;8.23;3.70;;;;;;;2.37;100.00;100654.09;5036596;28;20060;-91
2023/03/12 06:28:30;;;;;;;7.90;3.22;;;;;;;2.36;100.00;100645.25;5037125;28;20033;-91
2023/03/12 06:30:59;;;;;;;9.02;3.58;;;;;;;2.37;100.00;100636.19;5055130;28;20108;-89
2023/03/12 06:33:25;;;;;;;11.80;3.70;;;;;;;2.36;100.00;100634.53;5036512;28;20100;-89
2023/03/12 06:35:58;;;;;;;6.78;3.35;;;;;;;2.32;100.00;100640.34;5036613;28;20037;-88
2023/03/12 06:38:24;;;;;;;7.10;3.28;;;;;;;2.30;100.00;100629.81;5037633;28;20029;-90
2023/03/12 06:40:57;;;;;;;8.82;3.83;;;;;;;2.24;100.00;100623.31;5057007;28;20032;-93
2023/03/12 06:43:27;;;;;;;12.00;4.40;;;;;;;2.18;100.00;100615.91;5040101;28;20025;-91
2023/03/12 06:45:57;;;;;;;7.28;4.07;;;;;;;2.22;100.00;100619.94;5055655;28;20029;-90
2023/03/12 06:48:32;;;;;;;8.82;3.47;;;;;;;2.16;100.00;100609.09;5037347;28;20033;-90
2023/03/12 06:50:58;;;;;;;10.67;3.77;;;;;;;2.11;100.00;100598.84;5057837;28;20071;-90
2023/03/12 06:53:30;;;;;;;11.70;4.65;;;;;;;2.09;100.00;100601.69;5054555;28;20040;-89
2023/03/12 06:55:55;;;;;;;8.77;3.95;;;;;;;2.15;100.00;100602.88;5053919;28;20483;-89
2023/03/12 06:58:21;;;;;;;11.60;4.80;;;;;;;2.12;100.00;100607.72;5036273;28;20040;-88
2023/03/12 07:00:49;;;;;;;10.87;4.83;;;;;;;2.09;100.00;100596.34;5054436;28;20053;-89
2023/03/12 07:03:15;;;;;;;10.07;4.95;;;;;;;2.13;100.00;100591.50;5036888;28;20024;-88
2023/03/12 07:05:48;;;;;;;13.87;5.07;;;;;;;2.12;100.00;100583.66;5053741;28;20066;-88
2023/03/12 07:08:17;;;;;;;13.45;4.68;;;;;;;2.21;100.00;100591.50;5035742;28;20063;-88
2023/03/12 07:10:45;;;;;;;12.45;4.55;;;;;;;2.17;100.00;100587.50;5035860;28;20425;-88
2023/03/12 07:13:11;;;;;;;13.35;5.30;;;;;;;2.18;100.00;100581.13;5053467;28;20025;-88
2023/03/12 07:15:37;;;;;;;10.02;4.50;;;;;;;2.18;100.00;100589.16;5035509;28;20060;-88
2023/03/12 07:18:08;;;;;;;12.02;4.72;;;;;;;2.22;100.00;100584.31;5053783;28;20072;-88
2023/03/12 07:20:37;;;;;;;13.18;4.68;;;;;;;2.26;100.00;100594.53;5035628;28;20100;-88
2023/03/12 07:23:02;;;;;;;14.88;5.68;;;;;;;2.26;100.00;100591.84;5035504;28;20029;-88
2023/03/12 07:25:36;;;;;;;12.85;5.45;;;;;;;2.32;100.00;100601.06;5035313;28;20035;-88
2023/03/12 07:28:02;;;;;;;11.13;5.40;;;;;;;2.35;100.00;100603.38;5053463;28;20033;-87
2023/03/12 07:30:32;;;;;;;12.70;5.70;;;;;;;2.35;100.00;100603.38;5035337;28;20147;-88
2023/03/12 07:33:04;;;;;;;12.87;5.80;;;;;;;2.38;100.00;100602.22;5035660;28;20033;-88
2023/03/12 07:35:33;;;;;;;11.63;6.45;;;;;;;2.41;100.00;100604.56;5053428;28;20021;-88
2023/03/12 07:38:00;;;;;;;11.23;6.20;;;;;;;2.42;100.00;100615.09;5035396;28;20065;-88
2023/03/12 07:40:39;;;;;;;12.38;5.85;;;;;;;2.44;100.00;100593.50;5035830;28;20036;-88
2023/03/12 07:43:09;;;;;;;11.80;5.88;;;;;;;2.42;100.00;100606.22;5020162;28;20041;-89
2023/03/12 07:45:41;;;;;;;14.53;7.40;;;;;;;2.49;100.00;100603.72;5035967;28;20091;-88
2023/03/12 07:48:07;;;;;;;12.48;5.45;;;;;;;2.51;100.00;100604.38;5053661;28;20483;-88
2023/03/12 07:50:36;;;;;;;11.68;6.55;;;;;;;2.57;100.00;100595.66;5053131;28;20037;-88
2023/03/12 07:53:03;;;;;;;13.90;6.90;;;;;;;2.64;100.00;100615.41;5053212;28;20104;-87
2023/03/12 07:55:29;;;;;;;14.77;6.53;;;;;;;2.69;100.00;100610.41;5053754;28;20033;-88
2023/03/12 07:57:57;;;;;;;14.57;6.50;;;;;;;2.69;100.00;100612.22;5035927;28;20036;-87
2023/03/12 08:00:23;;;;;;;12.73;7.03;;;;;;;2.75;100.00;100608.88;5035000;28;20057;-87
2023/03/12 08:02:49;;;;;;;16.15;6.55;;;;;;;2.80;100.00;100604.69;5019072;28;20037;-83
2023/03/12 08:05:14;;;;;;;10.67;5.90;;;;;;;2.99;100.00;100602.63;5019820;28;20087;-84
2023/03/12 08:07:40;;;;;;;15.83;6.33;;;;;;;3.14;100.00;100602.75;5019057;28;20523;-84
2023/03/12 08:10:07;;;;;;;11.50;6.50;;;;;;;3.23;100.00;100599.03;5053442;28;20029;-83
2023/03/12 08:12:33;;;;;;;13.18;6.95;;;;;;;3.33;100.00;100599.66;5036025;28;20069;-83
2023/03/12 08:14:58;;;;;;;14.88;7.10;;;;;;;3.40;100.00;100602.47;5035118;28;20029;-83
2023/03/12 08:17:24;;;;;;;12.73;5.73;;;;;;;3.44;100.00;100595.78;5053387;28;20376;-83
2023/03/12 08:19:50;;;;;;;10.50;6.70;;;;;;;3.49;100.00;100600.59;5018754;28;20033;-83
2023/03/12 08:22:15;;;;;;;12.37;7.13;;;;;;;3.56;100.00;100596.22;5052932;28;20068;-83
2023/03/12 08:24:44;;;;;;;10.98;6.30;;;;;;;3.61;100.00;100603.72;5035557;28;20465;-87
2023/03/12 08:27:11;;;;;;;14.93;7.57;;;;;;;3.61;100.00;100601.88;5034844;28;20468;-87
2023/03/12 08:29:36;;;;;;;10.93;6.45;;;;;;;3.66;100.00;100610.25;5018656;28;20041;-87
2023/03/12 08:32:02;;;;;;;10.93;6.65;;;;;;;3.79;100.00;100608.81;5053008;28;20457;-86
2023/03/12 08:34:28;;;;;;;15.13;6.90;;;;;;;3.78;100.00;100610.69;5018652;28;20389;-86
2023/03/12 08:36:53;;;;;;;12.00;7.23;;;;;;;3.85;100.00;100618.84;5019355;28;20025;-86
2023/03/12 08:39:25;;;;;;;14.77;7.05;;;;;;;3.93;100.00;100616.13;5038917;28;20415;-87
2023/03/12 08:41:54;;;;;;;14.60;7.60;;;;;;;4.00;100.00;100614.41;5038416;28;20041;-86
2023/03/12 08:44:24;;;;;;;8.27;5.57;;;;;;;4.11;100.00;100634.63;5022700;28;20385;-86
2023/03/12 08:46:50;;;;;;;11.23;6.13;;;;;;;4.15;100.00;100621.66;5056709;28;20048;-86
2023/03/12 08:49:16;;;;;;;13.32;6.53;;;;;;;4.22;100.00;100628.00;5038053;28;20047;-87
2023/03/12 08:51:41;;;;;;;13.33;7.73;;;;;;;4.27;100.00;100632.88;5038110;28;20459;-87
2023/03/12 08:54:12;;;;;;;13.80;8.23;;;;;;;4.30;100.00;100629.81;5056697;28;20025;-87
2023/03/12 08:56:41;;;;;;;18.83;9.57;;;;;;;4.41;100.00;100645.50;5039541;28;20061;-86
2023/03/12 08:59:10;;;;;;;14.98;7.95;;;;;;;4.47;100.00;100644.75;5038339;28;20112;-87
2023/03/12 09:01:39;;;;;;;22.00;10.73;;;;;;;4.57;100.00;100636.47;5037733;28;20041;-86
2023/03/12 09:04:07;;;;;;;16.05;9.07;;;;;;;4.68;100.00;100641.41;5038290;28;20106;-88
2023/03/12 09:06:37;;;;;;;20.13;10.30;;;;;;;4.85;100.00;100630.50;5038642;28;20036;-88
2023/03/12 09:09:03;;;;;;;25.40;12.65;;;;;;;4.99;100.00;100639.59;5038350;28;20033;-88
2023/03/12 09:11:39;;;;;;;27.27;13.30;;;;;;;5.06;100.00;100653.97;5021452;28;20029;-87
2023/03/12 09:14:07;;;;;;;24.30;11.93;;;;;;;5.19;100.00;100645.28;5038044;28;20040;-87
2023/03/12 09:16:36;;;;;;;22.00;11.65;;;;;;;5.30;100.00;100635.91;5037904;28;20037;-87
2023/03/12 09:19:02;;;;;;;27.43;12.90;;;;;;;5.37;100.00;100637.66;5037943;28;20030;-87
2023/03/12 09:21:31;;;;;;;28.58;14.73;;;;;;;5.49;100.00;100637.19;5037578;28;20503;-87
2023/03/12 09:24:03;;;;;;;23.38;13.25;;;;;;;5.62;100.00;100629.28;5022068;28;20024;-86
2023/03/12 09:26:28;;;;;;;26.52;14.13;;;;;;;5.66;100.00;100633.28;5037374;28;20112;-87
2023/03/12 09:28:57;;;;;;;28.77;15.37;;;;;;;5.72;100.00;100637.09;5037933;28;20125;-88
2023/03/12 09:31:25;;;;;;;28.83;15.63;;;;;;;5.84;100.00;100627.47;5037618;28;20021;-87
2023/03/12 09:33:51;;;;;;;24.50;13.77;;;;;;;5.96;100.00;100628.69;5037442;28;20069;-87
2023/03/12 09:36:19;;;;;;;25.83;14.70;;;;;;;6.07;100.00;100631.91;5037340;28;20032;-87
2023/03/12 09:38:47;;;;;;;26.60;13.35;;;;;;;6.11;100.00;100635.88;5021382;28;20037;-88
2023/03/12 09:41:29;;;;;;;28.63;15.30;;;;;;;6.23;100.00;100634.38;5037711;28;20059;-87
2023/03/12 09:44:07;;;;;;;27.90;15.57;;;;;;;6.36;100.00;100638.22;5037985;28;20392;-86
2023/03/12 09:46:59;;;;;;;25.30;14.85;;;;;;;6.47;100.00;100638.53;5038158;28;20059;-86
2023/03/12 09:49:41;;;;;;;28.17;14.70;;;;;;;6.58;100.00;100647.94;5038602;28;20029;-87
2023/03/12 09:52:52;;;;;;;24.23;14.48;;;;;;;6.64;100.00;100663.38;5037557;28;20025;-85
2023/03/12 09:55:22;;;;;;;27.38;14.70;;;;;;;6.68;100.00;100663.78;4954881;29;20114;-86
2023/03/12 09:57:50;;;;;;;23.65;15.85;;;;;;;6.77;100.00;100675.28;5035810;28;20040;-86
2023/03/12 10:00:21;;;;;;;23.55;14.73;;;;;;;6.75;100.00;100671.97;5033665;28;20102;-86
2023/03/12 10:02:59;;;;;;;29.27;15.77;;;;;;;6.82;100.00;100672.81;5034923;28;20120;-86
2023/03/12 10:05:36;;;;;;;29.75;15.57;;;;;;;6.91;100.00;100674.38;5035525;28;20032;-86
2023/03/12 10:08:19;;;;;;;26.25;15.00;;;;;;;7.00;100.00;100673.19;5035163;28;20120;-85
2023/03/12 10:11:03;;;;;;;28.08;15.40;;;;;;;7.16;100.00;100688.25;5034297;28;20361;-86
2023/03/12 10:14:05;;;;;;;28.92;14.82;;;;;;;7.19;100.00;100676.22;5033996;28;20057;-86
2023/03/12 10:17:08;;;;;;;28.70;15.40;;;;;;;7.33;100.00;100663.66;5021549;28;20076;-86
2023/03/12 10:20:42;;;;;;;26.50;14.95;;;;;;;7.26;100.00;100676.25;5033276;28;20038;-86
2023/03/12 10:23:20;;;;;;;24.35;14.73;;;;;;;7.31;100.00;100666.53;4957139;28;20038;-86
2023/03/12 10:25:56;;;;;;;34.25;15.20;;;;;;;7.31;100.00;100658.44;5022987;28;20048;-86
2023/03/12 10:28:55;;;;;;;39.97;16.00;;;;;;;7.36;100.00;100672.16;5033603;28;20076;-86
2023/03/12 10:31:27;;;;;;;31.77;16.13;;;;;;;7.37;100.00;100663.03;5032864;28;20037;-86
2023/03/12 10:33:58;;;;;;;32.38;13.57;;;;;;;7.44;100.00;100662.25;5032990;28;20029;-86
2023/03/12 10:36:40;;;;;;;41.47;17.10;;;;;;;7.53;100.00;100663.78;5033069;28;20088;-86
2023/03/12 10:39:14;;;;;;;44.38;18.33;;;;;;;7.60;100.00;100680.81;5033135;28;20119;-86
2023/03/12 10:41:43;;;;;;;39.92;19.23;;;;;;;7.72;100.00;100672.97;5033182;28;20063;-86
2023/03/12 10:44:24;;;;;;;37.40;17.33;;;;;;;7.81;100.00;100671.78;5033060;28;20488;-86
2023/03/12 10:46:58;;;;;;;33.55;14.85;;;;;;;7.96;100.00;100668.94;5032864;28;20017;-86
2023/03/12 10:49:32;;;;;;;43.78;17.40;;;;;;;8.01;100.00;100655.63;5032836;28;20053;-86
2023/03/12 10:52:16;;;;;;;36.80;17.48;;;;;;;8.12;100.00;100661.50;5016323;28;20068;-86
2023/03/12 10:54:45;;;;;;;38.30;16.02;;;;;;;8.15;100.00;100658.38;5032519;28;20041;-86
2023/03/12 10:57:12;;;;;;;38.13;14.93;;;;;;;8.20;100.00;100659.44;5032785;28;20030;-86
2023/03/12 10:59:43;;;;;;;40.63;15.48;;;;;;;8.42;100.00;100652.00;5033241;28;20036;-86
2023/03/12 11:02:30;;;;;;;40.60;15.25;;;;;;;8.86;100.00;100663.28;5031932;28;20413;-86
2023/03/12 11:04:57;;;;;;;41.78;13.52;;;;;;;9.04;100.00;100657.22;5033877;28;20041;-86
2023/03/12 11:07:28;;;;;;;32.17;11.85;;;;;;;9.13;100.00;100660.56;5032500;28;20040;-86
2023/03/12 11:10:19;;;;;;;39.30;12.25;;;;;;;9.08;100.00;100668.47;5032867;28;20040;-86
2023/03/12 11:13:02;;;;;;;32.60;13.05;;;;;;;9.03;100.00;100662.84;5033835;28;20036;-86
2023/03/12 11:15:42;;;;;;;41.47;12.57;;;;;;;9.17;100.00;100669.06;5033986;28;20033;-86
2023/03/12 11:18:29;;;;;;;34.03;13.15;;;;;;;9.13;100.00;100674.09;5033910;28;20036;-86
2023/03/12 11:21:16;;;;;;;39.38;12.38;;;;;;;9.08;100.00;100665.75;5015846;28;20030;-86
2023/03/12 11:23:55;;;;;;;32.42;10.52;;;;;;;9.16;100.00;100672.84;5032413;28;20044;-86
2023/03/12 11:26:30;;;;;;;32.60;11.02;;;;;;;9.20;100.00;100674.91;5032361;28;20484;-86
2023/03/12 11:29:03;;;;;;;30.85;9.82;;;;;;;9.19;100.00;100675.94;5033193;28;20030;-86
2023/03/12 11:31:44;;;;;;;37.45;10.45;;;;;;;9.23;100.00;100677.19;5033036;28;20056;-86
2023/03/12 11:34:21;;;;;;;34.97;11.13;;;;;;;9.30;100.00;100669.06;5033346;28;20026;-86
2023/03/12 11:37:03;;;;;;;38.80;10.13;;;;;;;9.27;100.00;100688.44;5032761;28;20036;-87
2023/03/12 11:39:47;;;;;;;39.28;11.07;;;;;;;9.28;100.00;100690.91;5032344;28;20370;-87
2023/03/12 11:42:52;;;;;;;32.10;9.63;;;;;;;9.23;100.00;100679.91;5032544;28;20465;-87